sensor_id;sensor_type;location;lat;lon;timestamp;P1;durP1;ratioP1;P2;durP2;ratioP2
67053;SDS011;53960;51.826;5.850;2024-01-30T00:00:04;15.50;;;7.60;;
67053;SDS011;53960;51.826;5.850;2024-01-30T00:02:30;17.08;;;7.90;;
67053;SDS011;53960;51.826;5.850;2024-01-30T00:04:55;17.40;;;7.93;;
67053;SDS011;53960;51.826;5.850;2024-01-30T00:07:21;16.37;;;7.87;;
67053;SDS011;53960;51.826;5.850;2024-01-30T00:09:47;15.57;;;7.55;;
67053;SDS011;53960;51.826;5.850;2024-01-30T00:12:13;17.03;;;8.03;;
67053;SDS011;53960;51.826;5.850;2024-01-30T00:14:38;14.97;;;7.53;;
67053;SDS011;53960;51.826;5.850;2024-01-30T00:17:06;15.33;;;6.83;;
67053;SDS011;53960;51.826;5.850;2024-01-30T00:19:31;18.70;;;8.70;;
67053;SDS011;53960;51.826;5.850;2024-01-30T00:21:57;15.25;;;7.35;;
67053;SDS011;53960;51.826;5.850;2024-01-30T00:24:22;17.10;;;7.70;;
67053;SDS011;53960;51.826;5.850;2024-01-30T00:26:47;13.33;;;7.43;;
67053;SDS011;53960;51.826;5.850;2024-01-30T00:29:12;14.93;;;7.90;;
67053;SDS011;53960;51.826;5.850;2024-01-30T00:31:44;17.50;;;8.60;;
67053;SDS011;53960;51.826;5.850;2024-01-30T00:34:09;13.93;;;7.50;;
67053;SDS011;53960;51.826;5.850;2024-01-30T00:36:34;14.20;;;7.50;;
67053;SDS011;53960;51.826;5.850;2024-01-30T00:39:00;15.98;;;7.25;;
67053;SDS011;53960;51.826;5.850;2024-01-30T00:41:25;15.77;;;8.03;;
67053;SDS011;53960;51.826;5.850;2024-01-30T00:43:51;17.05;;;8.50;;
67053;SDS011;53960;51.826;5.850;2024-01-30T00:46:17;16.80;;;8.43;;
67053;SDS011;53960;51.826;5.850;2024-01-30T00:48:42;15.37;;;8.13;;
67053;SDS011;53960;51.826;5.850;2024-01-30T00:51:07;15.50;;;8.30;;
67053;SDS011;53960;51.826;5.850;2024-01-30T00:53:33;16.77;;;7.70;;
67053;SDS011;53960;51.826;5.850;2024-01-30T00:55:58;14.13;;;7.53;;
67053;SDS011;53960;51.826;5.850;2024-01-30T00:58:24;15.02;;;7.57;;
67053;SDS011;53960;51.826;5.850;2024-01-30T01:00:49;15.73;;;7.97;;
67053;SDS011;53960;51.826;5.850;2024-01-30T01:03:15;15.10;;;8.20;;
67053;SDS011;53960;51.826;5.850;2024-01-30T01:05:40;15.70;;;7.82;;
67053;SDS011;53960;51.826;5.850;2024-01-30T01:08:06;16.37;;;8.27;;
67053;SDS011;53960;51.826;5.850;2024-01-30T01:10:31;16.33;;;8.03;;
67053;SDS011;53960;51.826;5.850;2024-01-30T01:12:56;16.20;;;8.00;;
67053;SDS011;53960;51.826;5.850;2024-01-30T01:15:22;15.47;;;7.87;;
67053;SDS011;53960;51.826;5.850;2024-01-30T01:17:47;18.02;;;8.40;;
67053;SDS011;53960;51.826;5.850;2024-01-30T01:20:12;17.63;;;7.73;;
67053;SDS011;53960;51.826;5.850;2024-01-30T01:22:38;15.90;;;8.03;;
67053;SDS011;53960;51.826;5.850;2024-01-30T01:25:04;16.73;;;8.20;;
67053;SDS011;53960;51.826;5.850;2024-01-30T01:27:32;17.42;;;8.20;;
67053;SDS011;53960;51.826;5.850;2024-01-30T01:29:59;17.50;;;8.52;;
67053;SDS011;53960;51.826;5.850;2024-01-30T01:32:24;15.77;;;7.93;;
67053;SDS011;53960;51.826;5.850;2024-01-30T01:34:49;18.23;;;8.73;;
67053;SDS011;53960;51.826;5.850;2024-01-30T01:37:15;17.67;;;8.67;;
67053;SDS011;53960;51.826;5.850;2024-01-30T01:39:40;15.77;;;8.02;;
67053;SDS011;53960;51.826;5.850;2024-01-30T01:42:06;16.00;;;8.50;;
67053;SDS011;53960;51.826;5.850;2024-01-30T01:44:31;17.10;;;7.83;;
67053;SDS011;53960;51.826;5.850;2024-01-30T01:46:57;16.97;;;8.00;;
67053;SDS011;53960;51.826;5.850;2024-01-30T01:49:24;16.83;;;8.77;;
67053;SDS011;53960;51.826;5.850;2024-01-30T01:51:52;16.30;;;7.68;;
67053;SDS011;53960;51.826;5.850;2024-01-30T01:54:21;16.15;;;7.60;;
67053;SDS011;53960;51.826;5.850;2024-01-30T01:56:48;16.67;;;7.97;;
67053;SDS011;53960;51.826;5.850;2024-01-30T01:59:14;15.17;;;7.87;;
67053;SDS011;53960;51.826;5.850;2024-01-30T02:01:39;15.55;;;7.88;;
67053;SDS011;53960;51.826;5.850;2024-01-30T02:04:06;14.67;;;7.63;;
67053;SDS011;53960;51.826;5.850;2024-01-30T02:06:32;16.10;;;7.97;;
67053;SDS011;53960;51.826;5.850;2024-01-30T02:08:59;16.63;;;7.93;;
67053;SDS011;53960;51.826;5.850;2024-01-30T02:11:24;14.97;;;7.67;;
67053;SDS011;53960;51.826;5.850;2024-01-30T02:13:49;13.97;;;7.47;;
67053;SDS011;53960;51.826;5.850;2024-01-30T02:16:15;15.00;;;7.13;;
67053;SDS011;53960;51.826;5.850;2024-01-30T02:18:42;13.82;;;6.95;;
67053;SDS011;53960;51.826;5.850;2024-01-30T02:21:10;14.40;;;6.67;;
67053;SDS011;53960;51.826;5.850;2024-01-30T02:23:35;13.20;;;6.75;;
67053;SDS011;53960;51.826;5.850;2024-01-30T02:26:01;15.03;;;7.50;;
67053;SDS011;53960;51.826;5.850;2024-01-30T02:28:26;14.57;;;7.30;;
67053;SDS011;53960;51.826;5.850;2024-01-30T02:30:55;13.75;;;7.38;;
67053;SDS011;53960;51.826;5.850;2024-01-30T02:33:20;16.70;;;7.67;;
67053;SDS011;53960;51.826;5.850;2024-01-30T02:35:47;15.15;;;7.43;;
67053;SDS011;53960;51.826;5.850;2024-01-30T02:38:12;14.13;;;7.57;;
67053;SDS011;53960;51.826;5.850;2024-01-30T02:40:38;15.20;;;7.13;;
67053;SDS011;53960;51.826;5.850;2024-01-30T02:43:03;15.57;;;7.47;;
67053;SDS011;53960;51.826;5.850;2024-01-30T02:45:29;13.85;;;7.13;;
67053;SDS011;53960;51.826;5.850;2024-01-30T02:47:54;14.27;;;6.90;;
67053;SDS011;53960;51.826;5.850;2024-01-30T02:50:20;15.87;;;7.93;;
67053;SDS011;53960;51.826;5.850;2024-01-30T02:52:45;15.70;;;7.63;;
67053;SDS011;53960;51.826;5.850;2024-01-30T02:55:11;13.25;;;6.85;;
67053;SDS011;53960;51.826;5.850;2024-01-30T02:57:37;15.00;;;7.07;;
67053;SDS011;53960;51.826;5.850;2024-01-30T03:00:03;14.68;;;6.80;;
67053;SDS011;53960;51.826;5.850;2024-01-30T03:02:30;15.40;;;7.25;;
67053;SDS011;53960;51.826;5.850;2024-01-30T03:04:55;14.33;;;7.13;;
67053;SDS011;53960;51.826;5.850;2024-01-30T03:07:21;16.23;;;7.23;;
67053;SDS011;53960;51.826;5.850;2024-01-30T03:09:46;15.23;;;7.60;;
67053;SDS011;53960;51.826;5.850;2024-01-30T03:12:12;15.73;;;7.53;;
67053;SDS011;53960;51.826;5.850;2024-01-30T03:14:37;16.33;;;8.33;;
67053;SDS011;53960;51.826;5.850;2024-01-30T03:17:02;15.57;;;7.27;;
67053;SDS011;53960;51.826;5.850;2024-01-30T03:19:28;14.93;;;7.60;;
67053;SDS011;53960;51.826;5.850;2024-01-30T03:21:53;15.40;;;7.65;;
67053;SDS011;53960;51.826;5.850;2024-01-30T03:24:19;17.03;;;7.63;;
67053;SDS011;53960;51.826;5.850;2024-01-30T03:26:44;15.27;;;7.77;;
67053;SDS011;53960;51.826;5.850;2024-01-30T03:29:10;16.80;;;8.10;;
67053;SDS011;53960;51.826;5.850;2024-01-30T03:31:35;18.27;;;7.77;;
67053;SDS011;53960;51.826;5.850;2024-01-30T03:34:01;15.30;;;7.77;;
67053;SDS011;53960;51.826;5.850;2024-01-30T03:36:26;15.05;;;7.55;;
67053;SDS011;53960;51.826;5.850;2024-01-30T03:38:52;13.63;;;7.00;;
67053;SDS011;53960;51.826;5.850;2024-01-30T03:41:17;15.93;;;7.67;;
67053;SDS011;53960;51.826;5.850;2024-01-30T03:43:43;15.27;;;7.00;;
67053;SDS011;53960;51.826;5.850;2024-01-30T03:46:08;16.97;;;7.43;;
67053;SDS011;53960;51.826;5.850;2024-01-30T03:48:33;14.10;;;7.67;;
67053;SDS011;53960;51.826;5.850;2024-01-30T03:50:59;13.67;;;7.13;;
67053;SDS011;53960;51.826;5.850;2024-01-30T03:53:24;16.73;;;7.10;;
67053;SDS011;53960;51.826;5.850;2024-01-30T03:55:50;13.73;;;6.68;;
67053;SDS011;53960;51.826;5.850;2024-01-30T03:58:16;12.57;;;6.43;;
67053;SDS011;53960;51.826;5.850;2024-01-30T04:00:41;13.40;;;6.77;;
67053;SDS011;53960;51.826;5.850;2024-01-30T04:03:06;14.17;;;7.30;;
67053;SDS011;53960;51.826;5.850;2024-01-30T04:05:32;15.33;;;7.00;;
67053;SDS011;53960;51.826;5.850;2024-01-30T04:07:57;14.27;;;6.90;;
67053;SDS011;53960;51.826;5.850;2024-01-30T04:10:23;15.33;;;7.37;;
67053;SDS011;53960;51.826;5.850;2024-01-30T04:12:49;15.90;;;7.30;;
67053;SDS011;53960;51.826;5.850;2024-01-30T04:15:15;16.83;;;7.57;;
67053;SDS011;53960;51.826;5.850;2024-01-30T04:17:41;14.45;;;7.65;;
67053;SDS011;53960;51.826;5.850;2024-01-30T04:20:06;14.27;;;7.67;;
67053;SDS011;53960;51.826;5.850;2024-01-30T04:22:32;15.93;;;7.47;;
67053;SDS011;53960;51.826;5.850;2024-01-30T04:24:57;14.70;;;7.00;;
67053;SDS011;53960;51.826;5.850;2024-01-30T04:27:22;13.10;;;6.80;;
67053;SDS011;53960;51.826;5.850;2024-01-30T04:29:48;13.00;;;7.30;;
67053;SDS011;53960;51.826;5.850;2024-01-30T04:32:13;14.27;;;7.20;;
67053;SDS011;53960;51.826;5.850;2024-01-30T04:34:39;15.67;;;7.80;;
67053;SDS011;53960;51.826;5.850;2024-01-30T04:37:04;15.47;;;7.63;;
67053;SDS011;53960;51.826;5.850;2024-01-30T04:39:29;16.87;;;7.53;;
67053;SDS011;53960;51.826;5.850;2024-01-30T04:41:54;16.03;;;7.20;;
67053;SDS011;53960;51.826;5.850;2024-01-30T04:44:20;15.17;;;7.80;;
67053;SDS011;53960;51.826;5.850;2024-01-30T04:46:45;15.32;;;7.30;;
67053;SDS011;53960;51.826;5.850;2024-01-30T04:49:11;13.30;;;6.70;;
67053;SDS011;53960;51.826;5.850;2024-01-30T04:51:36;14.43;;;7.00;;
67053;SDS011;53960;51.826;5.850;2024-01-30T04:54:02;15.97;;;7.57;;
67053;SDS011;53960;51.826;5.850;2024-01-30T04:56:27;15.23;;;7.00;;
67053;SDS011;53960;51.826;5.850;2024-01-30T04:58:53;15.03;;;6.93;;
67053;SDS011;53960;51.826;5.850;2024-01-30T05:01:18;15.17;;;7.07;;
67053;SDS011;53960;51.826;5.850;2024-01-30T05:03:43;14.30;;;7.03;;
67053;SDS011;53960;51.826;5.850;2024-01-30T05:06:09;14.30;;;6.55;;
67053;SDS011;53960;51.826;5.850;2024-01-30T05:08:34;14.07;;;6.60;;
67053;SDS011;53960;51.826;5.850;2024-01-30T05:11:03;13.38;;;6.63;;
67053;SDS011;53960;51.826;5.850;2024-01-30T05:13:30;13.80;;;7.40;;
67053;SDS011;53960;51.826;5.850;2024-01-30T05:15:56;15.18;;;6.72;;
67053;SDS011;53960;51.826;5.850;2024-01-30T05:18:21;12.87;;;6.33;;
67053;SDS011;53960;51.826;5.850;2024-01-30T05:20:47;13.32;;;6.47;;
67053;SDS011;53960;51.826;5.850;2024-01-30T05:23:12;14.27;;;6.50;;
67053;SDS011;53960;51.826;5.850;2024-01-30T05:25:37;13.90;;;6.93;;
67053;SDS011;53960;51.826;5.850;2024-01-30T05:28:03;12.70;;;6.70;;
67053;SDS011;53960;51.826;5.850;2024-01-30T05:30:28;13.73;;;6.87;;
67053;SDS011;53960;51.826;5.850;2024-01-30T05:32:53;13.63;;;6.40;;
67053;SDS011;53960;51.826;5.850;2024-01-30T05:35:19;16.17;;;6.60;;
67053;SDS011;53960;51.826;5.850;2024-01-30T05:37:46;14.10;;;6.63;;
67053;SDS011;53960;51.826;5.850;2024-01-30T05:40:12;13.68;;;6.47;;
67053;SDS011;53960;51.826;5.850;2024-01-30T05:42:38;12.23;;;5.97;;
67053;SDS011;53960;51.826;5.850;2024-01-30T05:45:03;14.02;;;6.30;;
67053;SDS011;53960;51.826;5.850;2024-01-30T05:47:30;13.93;;;5.93;;
67053;SDS011;53960;51.826;5.850;2024-01-30T05:49:55;12.27;;;6.37;;
67053;SDS011;53960;51.826;5.850;2024-01-30T05:52:21;13.37;;;6.30;;
67053;SDS011;53960;51.826;5.850;2024-01-30T05:54:46;14.23;;;6.70;;
67053;SDS011;53960;51.826;5.850;2024-01-30T05:57:11;14.23;;;6.20;;
67053;SDS011;53960;51.826;5.850;2024-01-30T05:59:37;14.30;;;5.87;;
67053;SDS011;53960;51.826;5.850;2024-01-30T06:02:02;15.80;;;5.77;;
67053;SDS011;53960;51.826;5.850;2024-01-30T06:04:27;13.02;;;5.93;;
67053;SDS011;53960;51.826;5.850;2024-01-30T06:06:53;12.83;;;5.80;;
67053;SDS011;53960;51.826;5.850;2024-01-30T06:09:18;14.83;;;6.63;;
67053;SDS011;53960;51.826;5.850;2024-01-30T06:11:44;13.87;;;5.93;;
67053;SDS011;53960;51.826;5.850;2024-01-30T06:14:10;13.45;;;6.38;;
67053;SDS011;53960;51.826;5.850;2024-01-30T06:16:35;14.00;;;6.60;;
67053;SDS011;53960;51.826;5.850;2024-01-30T06:19:00;13.43;;;6.60;;
67053;SDS011;53960;51.826;5.850;2024-01-30T06:21:26;16.23;;;7.07;;
67053;SDS011;53960;51.826;5.850;2024-01-30T06:23:51;12.83;;;6.23;;
67053;SDS011;53960;51.826;5.850;2024-01-30T06:26:16;14.87;;;6.20;;
67053;SDS011;53960;51.826;5.850;2024-01-30T06:28:41;13.30;;;6.73;;
67053;SDS011;53960;51.826;5.850;2024-01-30T06:31:07;12.47;;;5.73;;
67053;SDS011;53960;51.826;5.850;2024-01-30T06:33:32;12.67;;;6.40;;
67053;SDS011;53960;51.826;5.850;2024-01-30T06:35:57;13.47;;;5.40;;
67053;SDS011;53960;51.826;5.850;2024-01-30T06:38:23;12.10;;;5.77;;
67053;SDS011;53960;51.826;5.850;2024-01-30T06:40:48;12.53;;;5.87;;
67053;SDS011;53960;51.826;5.850;2024-01-30T06:43:13;12.47;;;6.53;;
67053;SDS011;53960;51.826;5.850;2024-01-30T06:45:39;10.90;;;5.70;;
67053;SDS011;53960;51.826;5.850;2024-01-30T06:48:04;14.02;;;6.22;;
67053;SDS011;53960;51.826;5.850;2024-01-30T06:50:30;11.30;;;5.70;;
67053;SDS011;53960;51.826;5.850;2024-01-30T06:52:55;12.27;;;6.10;;
67053;SDS011;53960;51.826;5.850;2024-01-30T06:55:20;12.73;;;6.30;;
67053;SDS011;53960;51.826;5.850;2024-01-30T06:57:46;12.77;;;5.88;;
67053;SDS011;53960;51.826;5.850;2024-01-30T07:00:11;13.30;;;5.90;;
67053;SDS011;53960;51.826;5.850;2024-01-30T07:02:38;13.30;;;5.63;;
67053;SDS011;53960;51.826;5.850;2024-01-30T07:05:04;13.07;;;6.20;;
67053;SDS011;53960;51.826;5.850;2024-01-30T07:07:29;12.20;;;5.97;;
67053;SDS011;53960;51.826;5.850;2024-01-30T07:09:54;12.90;;;5.87;;
67053;SDS011;53960;51.826;5.850;2024-01-30T07:12:23;13.13;;;6.18;;
67053;SDS011;53960;51.826;5.850;2024-01-30T07:14:50;12.82;;;6.22;;
67053;SDS011;53960;51.826;5.850;2024-01-30T07:17:16;12.20;;;5.70;;
67053;SDS011;53960;51.826;5.850;2024-01-30T07:19:41;14.97;;;6.00;;
67053;SDS011;53960;51.826;5.850;2024-01-30T07:22:06;12.23;;;6.00;;
67053;SDS011;53960;51.826;5.850;2024-01-30T07:24:32;10.75;;;5.57;;
67053;SDS011;53960;51.826;5.850;2024-01-30T07:26:58;13.17;;;6.13;;
67053;SDS011;53960;51.826;5.850;2024-01-30T07:29:23;13.70;;;5.80;;
67053;SDS011;53960;51.826;5.850;2024-01-30T07:31:48;13.07;;;6.20;;
67053;SDS011;53960;51.826;5.850;2024-01-30T07:34:14;12.13;;;5.93;;
67053;SDS011;53960;51.826;5.850;2024-01-30T07:36:39;13.70;;;5.80;;
67053;SDS011;53960;51.826;5.850;2024-01-30T07:39:04;14.17;;;6.33;;
67053;SDS011;53960;51.826;5.850;2024-01-30T07:41:30;12.87;;;5.80;;
67053;SDS011;53960;51.826;5.850;2024-01-30T07:43:55;11.50;;;5.90;;
67053;SDS011;53960;51.826;5.850;2024-01-30T07:46:20;14.47;;;6.30;;
67053;SDS011;53960;51.826;5.850;2024-01-30T07:48:46;12.40;;;5.90;;
67053;SDS011;53960;51.826;5.850;2024-01-30T07:51:11;12.90;;;5.65;;
67053;SDS011;53960;51.826;5.850;2024-01-30T07:53:36;13.27;;;6.07;;
67053;SDS011;53960;51.826;5.850;2024-01-30T07:56:02;14.37;;;6.77;;
67053;SDS011;53960;51.826;5.850;2024-01-30T07:58:27;14.63;;;6.70;;
67053;SDS011;53960;51.826;5.850;2024-01-30T08:00:53;14.63;;;6.43;;
67053;SDS011;53960;51.826;5.850;2024-01-30T08:03:18;11.75;;;6.00;;
67053;SDS011;53960;51.826;5.850;2024-01-30T08:05:44;12.63;;;6.10;;
67053;SDS011;53960;51.826;5.850;2024-01-30T08:08:09;12.27;;;5.77;;
67053;SDS011;53960;51.826;5.850;2024-01-30T08:10:35;14.10;;;6.75;;
67053;SDS011;53960;51.826;5.850;2024-01-30T08:13:01;15.90;;;6.50;;
67053;SDS011;53960;51.826;5.850;2024-01-30T08:15:27;12.02;;;6.28;;
67053;SDS011;53960;51.826;5.850;2024-01-30T08:17:52;12.90;;;6.37;;
67053;SDS011;53960;51.826;5.850;2024-01-30T08:20:22;12.05;;;5.72;;
67053;SDS011;53960;51.826;5.850;2024-01-30T08:22:48;13.63;;;6.15;;
67053;SDS011;53960;51.826;5.850;2024-01-30T08:25:13;15.83;;;6.50;;
67053;SDS011;53960;51.826;5.850;2024-01-30T08:27:39;14.27;;;6.43;;
67053;SDS011;53960;51.826;5.850;2024-01-30T08:30:05;11.97;;;5.83;;
67053;SDS011;53960;51.826;5.850;2024-01-30T08:32:31;13.25;;;5.60;;
67053;SDS011;53960;51.826;5.850;2024-01-30T08:34:57;12.02;;;5.88;;
67053;SDS011;53960;51.826;5.850;2024-01-30T08:37:23;12.30;;;5.90;;
67053;SDS011;53960;51.826;5.850;2024-01-30T08:39:48;14.40;;;6.30;;
67053;SDS011;53960;51.826;5.850;2024-01-30T08:42:14;14.10;;;5.97;;
67053;SDS011;53960;51.826;5.850;2024-01-30T08:44:39;13.15;;;5.68;;
67053;SDS011;53960;51.826;5.850;2024-01-30T08:47:04;14.97;;;5.97;;
67053;SDS011;53960;51.826;5.850;2024-01-30T08:49:30;12.50;;;5.37;;
67053;SDS011;53960;51.826;5.850;2024-01-30T08:51:56;11.10;;;5.80;;
67053;SDS011;53960;51.826;5.850;2024-01-30T08:54:21;12.47;;;5.73;;
67053;SDS011;53960;51.826;5.850;2024-01-30T08:56:47;12.73;;;6.10;;
67053;SDS011;53960;51.826;5.850;2024-01-30T08:59:12;12.97;;;5.93;;
67053;SDS011;53960;51.826;5.850;2024-01-30T09:01:37;12.85;;;5.82;;
67053;SDS011;53960;51.826;5.850;2024-01-30T09:04:03;13.80;;;5.70;;
67053;SDS011;53960;51.826;5.850;2024-01-30T09:06:28;11.43;;;5.93;;
67053;SDS011;53960;51.826;5.850;2024-01-30T09:08:54;13.17;;;5.87;;
67053;SDS011;53960;51.826;5.850;2024-01-30T09:11:19;12.47;;;5.80;;
67053;SDS011;53960;51.826;5.850;2024-01-30T09:13:44;11.80;;;5.97;;
67053;SDS011;53960;51.826;5.850;2024-01-30T09:16:10;17.20;;;5.93;;
67053;SDS011;53960;51.826;5.850;2024-01-30T09:18:35;13.17;;;5.70;;
67053;SDS011;53960;51.826;5.850;2024-01-30T09:21:00;11.63;;;5.87;;
67053;SDS011;53960;51.826;5.850;2024-01-30T09:23:27;12.57;;;6.13;;
67053;SDS011;53960;51.826;5.850;2024-01-30T09:25:52;12.63;;;6.00;;
67053;SDS011;53960;51.826;5.850;2024-01-30T09:28:18;15.17;;;6.70;;
67053;SDS011;53960;51.826;5.850;2024-01-30T09:30:43;12.73;;;5.95;;
67053;SDS011;53960;51.826;5.850;2024-01-30T09:33:08;12.13;;;5.87;;
67053;SDS011;53960;51.826;5.850;2024-01-30T09:35:34;13.30;;;6.10;;
67053;SDS011;53960;51.826;5.850;2024-01-30T09:38:01;13.43;;;6.53;;
67053;SDS011;53960;51.826;5.850;2024-01-30T09:40:26;13.30;;;6.00;;
67053;SDS011;53960;51.826;5.850;2024-01-30T09:42:52;12.67;;;5.90;;
67053;SDS011;53960;51.826;5.850;2024-01-30T09:45:19;13.07;;;5.85;;
67053;SDS011;53960;51.826;5.850;2024-01-30T09:47:48;13.43;;;6.00;;
67053;SDS011;53960;51.826;5.850;2024-01-30T09:50:14;12.63;;;6.03;;
67053;SDS011;53960;51.826;5.850;2024-01-30T09:52:40;12.75;;;6.03;;
67053;SDS011;53960;51.826;5.850;2024-01-30T09:55:06;11.83;;;6.17;;
67053;SDS011;53960;51.826;5.850;2024-01-30T09:57:32;15.20;;;6.25;;
67053;SDS011;53960;51.826;5.850;2024-01-30T09:59:59;14.70;;;6.35;;
67053;SDS011;53960;51.826;5.850;2024-01-30T10:02:24;13.93;;;6.40;;
67053;SDS011;53960;51.826;5.850;2024-01-30T10:04:50;11.50;;;6.00;;
67053;SDS011;53960;51.826;5.850;2024-01-30T10:07:19;12.52;;;6.10;;
67053;SDS011;53960;51.826;5.850;2024-01-30T10:09:45;14.95;;;6.38;;
67053;SDS011;53960;51.826;5.850;2024-01-30T10:12:11;15.40;;;6.90;;
67053;SDS011;53960;51.826;5.850;2024-01-30T10:14:41;13.07;;;6.63;;
67053;SDS011;53960;51.826;5.850;2024-01-30T10:17:07;14.00;;;6.82;;
67053;SDS011;53960;51.826;5.850;2024-01-30T10:19:33;12.70;;;6.80;;
67053;SDS011;53960;51.826;5.850;2024-01-30T10:22:02;16.73;;;6.70;;
67053;SDS011;53960;51.826;5.850;2024-01-30T10:24:28;13.95;;;6.55;;
67053;SDS011;53960;51.826;5.850;2024-01-30T10:26:56;16.48;;;6.80;;
67053;SDS011;53960;51.826;5.850;2024-01-30T10:29:22;14.47;;;6.83;;
67053;SDS011;53960;51.826;5.850;2024-01-30T10:32:03;17.57;;;7.17;;
67053;SDS011;53960;51.826;5.850;2024-01-30T10:34:30;14.80;;;6.35;;
67053;SDS011;53960;51.826;5.850;2024-01-30T10:39:25;13.57;;;6.17;;
67053;SDS011;53960;51.826;5.850;2024-01-30T10:41:54;15.27;;;6.38;;
67053;SDS011;53960;51.826;5.850;2024-01-30T10:44:22;12.80;;;6.53;;
67053;SDS011;53960;51.826;5.850;2024-01-30T10:46:49;15.67;;;8.30;;
67053;SDS011;53960;51.826;5.850;2024-01-30T10:49:19;14.07;;;6.75;;
67053;SDS011;53960;51.826;5.850;2024-01-30T10:51:46;15.05;;;6.78;;
67053;SDS011;53960;51.826;5.850;2024-01-30T10:54:13;16.52;;;7.30;;
67053;SDS011;53960;51.826;5.850;2024-01-30T10:56:40;13.90;;;6.23;;
67053;SDS011;53960;51.826;5.850;2024-01-30T10:59:07;14.73;;;6.07;;
67053;SDS011;53960;51.826;5.850;2024-01-30T11:01:34;13.40;;;6.20;;
67053;SDS011;53960;51.826;5.850;2024-01-30T11:04:00;15.02;;;5.88;;
67053;SDS011;53960;51.826;5.850;2024-01-30T11:06:25;15.77;;;5.87;;
67053;SDS011;53960;51.826;5.850;2024-01-30T11:09:00;14.37;;;6.67;;
67053;SDS011;53960;51.826;5.850;2024-01-30T11:11:28;14.13;;;6.00;;
67053;SDS011;53960;51.826;5.850;2024-01-30T11:13:54;10.97;;;4.90;;
67053;SDS011;53960;51.826;5.850;2024-01-30T11:16:19;16.07;;;5.90;;
67053;SDS011;53960;51.826;5.850;2024-01-30T11:18:49;16.67;;;5.95;;
67053;SDS011;53960;51.826;5.850;2024-01-30T11:21:16;14.93;;;5.47;;
67053;SDS011;53960;51.826;5.850;2024-01-30T11:23:41;12.30;;;5.50;;
67053;SDS011;53960;51.826;5.850;2024-01-30T11:26:07;17.17;;;6.00;;
67053;SDS011;53960;51.826;5.850;2024-01-30T11:28:35;14.70;;;5.78;;
67053;SDS011;53960;51.826;5.850;2024-01-30T11:31:05;12.23;;;5.43;;
67053;SDS011;53960;51.826;5.850;2024-01-30T11:33:36;12.90;;;5.90;;
67053;SDS011;53960;51.826;5.850;2024-01-30T11:36:02;17.13;;;6.80;;
67053;SDS011;53960;51.826;5.850;2024-01-30T11:38:27;14.00;;;5.97;;
67053;SDS011;53960;51.826;5.850;2024-01-30T11:40:56;11.30;;;5.43;;
67053;SDS011;53960;51.826;5.850;2024-01-30T11:43:22;13.27;;;5.50;;
67053;SDS011;53960;51.826;5.850;2024-01-30T11:45:48;12.15;;;5.43;;
67053;SDS011;53960;51.826;5.850;2024-01-30T11:48:14;14.55;;;5.82;;
67053;SDS011;53960;51.826;5.850;2024-01-30T11:50:39;11.97;;;5.53;;
67053;SDS011;53960;51.826;5.850;2024-01-30T11:53:09;11.70;;;5.38;;
67053;SDS011;53960;51.826;5.850;2024-01-30T11:55:35;10.13;;;4.90;;
67053;SDS011;53960;51.826;5.850;2024-01-30T11:58:02;11.80;;;4.50;;
67053;SDS011;53960;51.826;5.850;2024-01-30T12:00:29;11.52;;;4.50;;
67053;SDS011;53960;51.826;5.850;2024-01-30T12:02:55;11.45;;;4.60;;
67053;SDS011;53960;51.826;5.850;2024-01-30T12:05:22;10.30;;;4.30;;
67053;SDS011;53960;51.826;5.850;2024-01-30T12:07:47;12.90;;;4.70;;
67053;SDS011;53960;51.826;5.850;2024-01-30T12:10:13;10.90;;;4.23;;
67053;SDS011;53960;51.826;5.850;2024-01-30T12:12:39;10.88;;;4.55;;
67053;SDS011;53960;51.826;5.850;2024-01-30T12:15:07;11.25;;;4.55;;
67053;SDS011;53960;51.826;5.850;2024-01-30T12:17:33;12.00;;;4.50;;
67053;SDS011;53960;51.826;5.850;2024-01-30T12:20:11;12.50;;;4.50;;
67053;SDS011;53960;51.826;5.850;2024-01-30T12:22:39;11.23;;;4.72;;
67053;SDS011;53960;51.826;5.850;2024-01-30T12:25:09;11.55;;;3.90;;
67053;SDS011;53960;51.826;5.850;2024-01-30T12:27:36;11.93;;;4.97;;
67053;SDS011;53960;51.826;5.850;2024-01-30T12:30:09;12.63;;;5.45;;
67053;SDS011;53960;51.826;5.850;2024-01-30T12:32:45;12.13;;;4.67;;
67053;SDS011;53960;51.826;5.850;2024-01-30T12:35:18;14.77;;;4.75;;
67053;SDS011;53960;51.826;5.850;2024-01-30T12:37:45;13.13;;;4.88;;
67053;SDS011;53960;51.826;5.850;2024-01-30T12:40:11;9.20;;;4.18;;
67053;SDS011;53960;51.826;5.850;2024-01-30T12:42:39;9.80;;;3.22;;
67053;SDS011;53960;51.826;5.850;2024-01-30T12:45:11;11.57;;;3.33;;
67053;SDS011;53960;51.826;5.850;2024-01-30T12:47:36;9.32;;;3.38;;
67053;SDS011;53960;51.826;5.850;2024-01-30T12:50:01;8.53;;;2.43;;
67053;SDS011;53960;51.826;5.850;2024-01-30T12:52:27;9.30;;;2.73;;
67053;SDS011;53960;51.826;5.850;2024-01-30T12:54:52;7.33;;;2.37;;
67053;SDS011;53960;51.826;5.850;2024-01-30T12:57:18;8.70;;;3.27;;
67053;SDS011;53960;51.826;5.850;2024-01-30T12:59:44;10.63;;;2.60;;
67053;SDS011;53960;51.826;5.850;2024-01-30T13:02:10;9.65;;;2.63;;
67053;SDS011;53960;51.826;5.850;2024-01-30T13:04:35;8.88;;;2.10;;
67053;SDS011;53960;51.826;5.850;2024-01-30T13:07:01;8.50;;;2.20;;
67053;SDS011;53960;51.826;5.850;2024-01-30T13:09:27;7.55;;;1.80;;
67053;SDS011;53960;51.826;5.850;2024-01-30T13:11:54;6.60;;;1.60;;
67053;SDS011;53960;51.826;5.850;2024-01-30T13:14:19;9.57;;;1.60;;
67053;SDS011;53960;51.826;5.850;2024-01-30T13:16:45;7.20;;;1.33;;
67053;SDS011;53960;51.826;5.850;2024-01-30T13:19:10;9.13;;;1.73;;
67053;SDS011;53960;51.826;5.850;2024-01-30T13:21:35;6.73;;;1.37;;
67053;SDS011;53960;51.826;5.850;2024-01-30T13:24:01;6.00;;;1.53;;
67053;SDS011;53960;51.826;5.850;2024-01-30T13:26:26;7.70;;;1.60;;
67053;SDS011;53960;51.826;5.850;2024-01-30T13:28:52;8.20;;;1.23;;
67053;SDS011;53960;51.826;5.850;2024-01-30T13:31:17;8.20;;;1.70;;
67053;SDS011;53960;51.826;5.850;2024-01-30T13:33:42;5.33;;;1.33;;
67053;SDS011;53960;51.826;5.850;2024-01-30T13:36:10;5.07;;;1.10;;
67053;SDS011;53960;51.826;5.850;2024-01-30T13:38:36;5.03;;;1.00;;
67053;SDS011;53960;51.826;5.850;2024-01-30T13:41:02;5.10;;;1.02;;
67053;SDS011;53960;51.826;5.850;2024-01-30T13:43:28;4.07;;;0.90;;
67053;SDS011;53960;51.826;5.850;2024-01-30T13:45:53;5.73;;;0.90;;
67053;SDS011;53960;51.826;5.850;2024-01-30T13:48:19;4.88;;;1.10;;
67053;SDS011;53960;51.826;5.850;2024-01-30T13:50:44;5.40;;;1.10;;
67053;SDS011;53960;51.826;5.850;2024-01-30T13:53:10;5.82;;;1.00;;
67053;SDS011;53960;51.826;5.850;2024-01-30T13:55:36;4.90;;;0.90;;
67053;SDS011;53960;51.826;5.850;2024-01-30T13:58:01;3.53;;;0.90;;
67053;SDS011;53960;51.826;5.850;2024-01-30T14:00:27;4.33;;;0.80;;
67053;SDS011;53960;51.826;5.850;2024-01-30T14:02:52;4.73;;;1.00;;
67053;SDS011;53960;51.826;5.850;2024-01-30T14:05:20;3.38;;;0.80;;
67053;SDS011;53960;51.826;5.850;2024-01-30T14:07:46;3.97;;;0.60;;
67053;SDS011;53960;51.826;5.850;2024-01-30T14:10:11;4.07;;;1.00;;
67053;SDS011;53960;51.826;5.850;2024-01-30T14:12:37;8.63;;;1.37;;
67053;SDS011;53960;51.826;5.850;2024-01-30T14:15:02;6.93;;;1.50;;
67053;SDS011;53960;51.826;5.850;2024-01-30T14:17:28;10.00;;;1.50;;
67053;SDS011;53960;51.826;5.850;2024-01-30T14:19:53;7.50;;;1.80;;
67053;SDS011;53960;51.826;5.850;2024-01-30T14:22:19;10.07;;;2.30;;
67053;SDS011;53960;51.826;5.850;2024-01-30T14:24:44;9.20;;;2.53;;
67053;SDS011;53960;51.826;5.850;2024-01-30T14:27:10;11.33;;;3.00;;
67053;SDS011;53960;51.826;5.850;2024-01-30T14:29:35;10.23;;;3.00;;